sensor_id;sensor_type;location;lat;lon;timestamp;pressure;altitude;pressure_sealevel;temperature;humidity
49915;BME280;35806;47.958;13.158;2023-09-19T00:01:03;94459.29;;;16.99;63.95
49915;BME280;35806;47.958;13.158;2023-09-19T00:03:29;94457.92;;;16.96;63.79
49915;BME280;35806;47.958;13.158;2023-09-19T00:05:58;94455.28;;;17.09;63.30
49915;BME280;35806;47.958;13.158;2023-09-19T00:08:25;94452.47;;;17.43;63.15
49915;BME280;35806;47.958;13.158;2023-09-19T00:10:54;94449.24;;;16.72;63.86
49915;BME280;35806;47.958;13.158;2023-09-19T00:13:21;94449.36;;;16.72;62.22
49915;BME280;35806;47.958;13.158;2023-09-19T00:15:49;94447.35;;;16.82;63.34
49915;BME280;35806;47.958;13.158;2023-09-19T00:18:16;94444.31;;;17.28;60.49
49915;BME280;35806;47.958;13.158;2023-09-19T00:20:43;94450.00;;;17.45;60.41
49915;BME280;35806;47.958;13.158;2023-09-19T00:23:10;94446.92;;;16.40;62.26
49915;BME280;35806;47.958;13.158;2023-09-19T00:25:38;94441.28;;;16.45;62.10
49915;BME280;35806;47.958;13.158;2023-09-19T00:28:05;94441.35;;;16.51;60.23
49915;BME280;35806;47.958;13.158;2023-09-19T00:30:33;94441.48;;;16.70;61.49
49915;BME280;35806;47.958;13.158;2023-09-19T00:33:01;94439.72;;;16.80;61.81
49915;BME280;35806;47.958;13.158;2023-09-19T00:35:28;94438.94;;;16.23;62.37
49915;BME280;35806;47.958;13.158;2023-09-19T00:37:55;94436.95;;;16.40;61.97
49915;BME280;35806;47.958;13.158;2023-09-19T00:40:23;94440.57;;;16.34;63.13
49915;BME280;35806;47.958;13.158;2023-09-19T00:42:50;94441.72;;;16.61;63.91
49915;BME280;35806;47.958;13.158;2023-09-19T00:45:18;94442.80;;;16.27;63.18
49915;BME280;35806;47.958;13.158;2023-09-19T00:47:48;94445.49;;;16.33;63.52
49915;BME280;35806;47.958;13.158;2023-09-19T00:50:16;94444.01;;;16.44;63.60
49915;BME280;35806;47.958;13.158;2023-09-19T00:52:44;94450.71;;;16.12;63.42
49915;BME280;35806;47.958;13.158;2023-09-19T00:55:15;94445.01;;;16.31;63.89
49915;BME280;35806;47.958;13.158;2023-09-19T00:57:43;94447.68;;;16.62;63.49
49915;BME280;35806;47.958;13.158;2023-09-19T01:15:36;94452.59;;;15.80;59.84
49915;BME280;35806;47.958;13.158;2023-09-19T01:18:14;94458.64;;;16.89;60.52
49915;BME280;35806;47.958;13.158;2023-09-19T01:20:50;94462.71;;;16.02;62.98
49915;BME280;35806;47.958;13.158;2023-09-19T01:23:25;94460.91;;;15.22;63.90
49915;BME280;35806;47.958;13.158;2023-09-19T01:26:07;94455.33;;;16.31;62.59
49915;BME280;35806;47.958;13.158;2023-09-19T01:28:55;94455.99;;;16.52;63.67
49915;BME280;35806;47.958;13.158;2023-09-19T01:31:32;94454.60;;;15.90;64.10
49915;BME280;35806;47.958;13.158;2023-09-19T01:34:02;94458.31;;;16.11;62.62
49915;BME280;35806;47.958;13.158;2023-09-19T01:36:33;94452.65;;;16.09;63.52
49915;BME280;35806;47.958;13.158;2023-09-19T01:39:00;94458.68;;;15.70;64.57
49915;BME280;35806;47.958;13.158;2023-09-19T01:41:41;94457.69;;;16.21;63.89
49915;BME280;35806;47.958;13.158;2023-09-19T01:44:19;94464.11;;;16.37;63.82
49915;BME280;35806;47.958;13.158;2023-09-19T01:46:49;94459.88;;;16.46;64.16
49915;BME280;35806;47.958;13.158;2023-09-19T01:49:25;94463.49;;;16.00;63.50
49915;BME280;35806;47.958;13.158;2023-09-19T01:52:00;94466.34;;;14.59;64.94
49915;BME280;35806;47.958;13.158;2023-09-19T01:54:36;94458.37;;;15.33;62.87
49915;BME280;35806;47.958;13.158;2023-09-19T01:57:09;94455.64;;;15.84;62.86
49915;BME280;35806;47.958;13.158;2023-09-19T01:59:45;94453.71;;;15.81;62.85
49915;BME280;35806;47.958;13.158;2023-09-19T02:02:12;94446.00;;;16.08;63.27
49915;BME280;35806;47.958;13.158;2023-09-19T02:04:40;94451.85;;;15.59;63.10
49915;BME280;35806;47.958;13.158;2023-09-19T02:07:08;94454.20;;;15.23;63.41
49915;BME280;35806;47.958;13.158;2023-09-19T02:09:35;94452.03;;;15.50;62.91
49915;BME280;35806;47.958;13.158;2023-09-19T02:12:03;94453.80;;;15.29;62.85
49915;BME280;35806;47.958;13.158;2023-09-19T02:14:31;94456.02;;;15.93;62.08
49915;BME280;35806;47.958;13.158;2023-09-19T02:16:58;94456.54;;;15.33;62.58
49915;BME280;35806;47.958;13.158;2023-09-19T02:19:26;94456.18;;;15.77;62.45
49915;BME280;35806;47.958;13.158;2023-09-19T02:21:53;94454.65;;;15.54;61.76
49915;BME280;35806;47.958;13.158;2023-09-19T02:24:21;94457.27;;;15.18;62.98
49915;BME280;35806;47.958;13.158;2023-09-19T02:26:48;94455.51;;;16.07;62.45
49915;BME280;35806;47.958;13.158;2023-09-19T02:29:15;94457.57;;;15.30;62.88
49915;BME280;35806;47.958;13.158;2023-09-19T02:31:42;94456.99;;;14.70;64.08
49915;BME280;35806;47.958;13.158;2023-09-19T02:34:10;94455.76;;;15.21;64.59
49915;BME280;35806;47.958;13.158;2023-09-19T02:36:36;94453.43;;;15.19;63.95
49915;BME280;35806;47.958;13.158;2023-09-19T02:39:04;94453.50;;;16.07;64.39
49915;BME280;35806;47.958;13.158;2023-09-19T02:41:32;94459.48;;;16.00;64.10
49915;BME280;35806;47.958;13.158;2023-09-19T02:43:59;94463.26;;;15.18;64.78
49915;BME280;35806;47.958;13.158;2023-09-19T02:46:27;94467.55;;;14.49;66.36
49915;BME280;35806;47.958;13.158;2023-09-19T02:48:54;94470.83;;;15.20;64.53
49915;BME280;35806;47.958;13.158;2023-09-19T02:51:22;94474.52;;;14.73;65.35
49915;BME280;35806;47.958;13.158;2023-09-19T02:53:49;94481.07;;;15.47;64.31
49915;BME280;35806;47.958;13.158;2023-09-19T02:56:17;94480.63;;;16.11;62.00
49915;BME280;35806;47.958;13.158;2023-09-19T02:58:44;94483.20;;;16.02;62.19
49915;BME280;35806;47.958;13.158;2023-09-19T03:01:12;94482.76;;;16.36;61.98
49915;BME280;35806;47.958;13.158;2023-09-19T03:03:39;94482.90;;;16.42;61.66
49915;BME280;35806;47.958;13.158;2023-09-19T03:06:07;94486.63;;;15.49;62.66
49915;BME280;35806;47.958;13.158;2023-09-19T03:08:35;94484.13;;;15.45;62.47
49915;BME280;35806;47.958;13.158;2023-09-19T03:11:03;94488.35;;;15.84;62.64
49915;BME280;35806;47.958;13.158;2023-09-19T03:13:32;94487.84;;;16.54;61.76
49915;BME280;35806;47.958;13.158;2023-09-19T03:15:59;94486.28;;;15.87;62.43
49915;BME280;35806;47.958;13.158;2023-09-19T03:18:27;94483.27;;;16.34;61.59
49915;BME280;35806;47.958;13.158;2023-09-19T03:20:55;94487.58;;;16.38;61.07
49915;BME280;35806;47.958;13.158;2023-09-19T03:23:22;94492.57;;;15.77;62.19
49915;BME280;35806;47.958;13.158;2023-09-19T03:25:49;94495.31;;;16.75;60.84
49915;BME280;35806;47.958;13.158;2023-09-19T03:28:17;94507.44;;;16.29;61.90
49915;BME280;35806;47.958;13.158;2023-09-19T03:30:44;94503.08;;;16.35;62.41
49915;BME280;35806;47.958;13.158;2023-09-19T03:33:12;94502.82;;;16.62;63.55
49915;BME280;35806;47.958;13.158;2023-09-19T03:35:39;94499.70;;;15.73;64.47
49915;BME280;35806;47.958;13.158;2023-09-19T03:38:07;94499.25;;;15.85;64.68
49915;BME280;35806;47.958;13.158;2023-09-19T03:40:34;94499.76;;;16.50;63.68
49915;BME280;35806;47.958;13.158;2023-09-19T03:43:02;94501.29;;;16.79;63.96
49915;BME280;35806;47.958;13.158;2023-09-19T03:45:30;94504.18;;;16.81;63.56
49915;BME280;35806;47.958;13.158;2023-09-19T03:47:57;94505.66;;;15.95;64.07
49915;BME280;35806;47.958;13.158;2023-09-19T03:50:24;94508.64;;;16.19;64.05
49915;BME280;35806;47.958;13.158;2023-09-19T03:52:56;94504.36;;;16.23;63.88
49915;BME280;35806;47.958;13.158;2023-09-19T03:55:23;94507.35;;;15.87;63.78
49915;BME280;35806;47.958;13.158;2023-09-19T03:57:50;94507.22;;;15.80;64.39
49915;BME280;35806;47.958;13.158;2023-09-19T04:00:18;94508.14;;;15.97;64.23
49915;BME280;35806;47.958;13.158;2023-09-19T04:02:46;94505.23;;;16.55;62.98
49915;BME280;35806;47.958;13.158;2023-09-19T04:05:13;94506.04;;;16.77;62.25
49915;BME280;35806;47.958;13.158;2023-09-19T04:07:40;94505.00;;;16.44;62.01
49915;BME280;35806;47.958;13.158;2023-09-19T04:10:09;94509.95;;;16.23;61.76
49915;BME280;35806;47.958;13.158;2023-09-19T04:12:37;94510.15;;;16.36;60.97
49915;BME280;35806;47.958;13.158;2023-09-19T04:15:05;94514.15;;;17.11;60.79
49915;BME280;35806;47.958;13.158;2023-09-19T04:17:33;94515.89;;;16.85;61.08
49915;BME280;35806;47.958;13.158;2023-09-19T04:20:01;94515.73;;;16.92;60.57
49915;BME280;35806;47.958;13.158;2023-09-19T04:22:28;94519.12;;;17.26;58.13
49915;BME280;35806;47.958;13.158;2023-09-19T04:24:56;94515.65;;;16.18;62.12
49915;BME280;35806;47.958;13.158;2023-09-19T04:27:23;94523.07;;;16.73;60.32
49915;BME280;35806;47.958;13.158;2023-09-19T04:29:51;94524.35;;;15.73;62.86
49915;BME280;35806;47.958;13.158;2023-09-19T04:32:18;94532.05;;;15.44;63.42
49915;BME280;35806;47.958;13.158;2023-09-19T04:34:46;94527.10;;;14.78;63.80
49915;BME280;35806;47.958;13.158;2023-09-19T04:37:13;94530.74;;;13.96;65.71
49915;BME280;35806;47.958;13.158;2023-09-19T04:39:39;94534.19;;;13.66;67.10
49915;BME280;35806;47.958;13.158;2023-09-19T04:42:06;94533.77;;;13.89;66.17
49915;BME280;35806;47.958;13.158;2023-09-19T04:44:34;94533.64;;;14.03;67.15
49915;BME280;35806;47.958;13.158;2023-09-19T04:47:01;94534.78;;;13.96;66.43
49915;BME280;35806;47.958;13.158;2023-09-19T04:49:29;94536.06;;;14.35;66.00
49915;BME280;35806;47.958;13.158;2023-09-19T04:51:56;94531.98;;;14.64;64.94
49915;BME280;35806;47.958;13.158;2023-09-19T04:54:24;94537.33;;;14.10;65.11
49915;BME280;35806;47.958;13.158;2023-09-19T04:56:51;94539.06;;;14.15;65.85
49915;BME280;35806;47.958;13.158;2023-09-19T04:59:18;94545.83;;;16.09;62.49
49915;BME280;35806;47.958;13.158;2023-09-19T05:01:46;94544.22;;;16.05;63.37
49915;BME280;35806;47.958;13.158;2023-09-19T05:04:13;94548.75;;;16.60;62.96
49915;BME280;35806;47.958;13.158;2023-09-19T05:06:41;94551.07;;;16.40;62.61
49915;BME280;35806;47.958;13.158;2023-09-19T05:09:08;94550.38;;;16.35;62.81
49915;BME280;35806;47.958;13.158;2023-09-19T05:11:36;94554.43;;;16.29;62.27
49915;BME280;35806;47.958;13.158;2023-09-19T05:14:04;94557.82;;;16.87;62.07
49915;BME280;35806;47.958;13.158;2023-09-19T05:16:31;94563.31;;;17.06;62.10
49915;BME280;35806;47.958;13.158;2023-09-19T05:18:59;94569.45;;;17.36;62.07
49915;BME280;35806;47.958;13.158;2023-09-19T05:21:27;94568.78;;;16.98;62.14
49915;BME280;35806;47.958;13.158;2023-09-19T05:23:54;94576.48;;;17.17;61.67
49915;BME280;35806;47.958;13.158;2023-09-19T05:26:22;94570.71;;;17.78;61.32
49915;BME280;35806;47.958;13.158;2023-09-19T05:28:49;94575.32;;;17.47;60.95
49915;BME280;35806;47.958;13.158;2023-09-19T05:31:17;94577.91;;;16.69;61.61
49915;BME280;35806;47.958;13.158;2023-09-19T05:33:44;94579.70;;;16.68;61.39
49915;BME280;35806;47.958;13.158;2023-09-19T05:36:12;94582.26;;;17.29;61.21
49915;BME280;35806;47.958;13.158;2023-09-19T05:38:38;94584.76;;;16.85;60.66
49915;BME280;35806;47.958;13.158;2023-09-19T05:41:06;94586.81;;;16.97;60.23
49915;BME280;35806;47.958;13.158;2023-09-19T05:43:34;94585.26;;;16.11;60.84
49915;BME280;35806;47.958;13.158;2023-09-19T05:46:02;94586.97;;;16.80;61.48
49915;BME280;35806;47.958;13.158;2023-09-19T05:48:29;94589.68;;;17.35;60.35
49915;BME280;35806;47.958;13.158;2023-09-19T05:50:57;94590.13;;;16.88;60.23
49915;BME280;35806;47.958;13.158;2023-09-19T05:53:24;94593.67;;;17.05;59.62
49915;BME280;35806;47.958;13.158;2023-09-19T05:55:52;94597.41;;;16.69;59.23
49915;BME280;35806;47.958;13.158;2023-09-19T05:58:19;94592.91;;;16.47;60.35
49915;BME280;35806;47.958;13.158;2023-09-19T06:00:47;94600.34;;;15.81;59.61
49915;BME280;35806;47.958;13.158;2023-09-19T06:03:14;94599.69;;;16.92;59.73
49915;BME280;35806;47.958;13.158;2023-09-19T06:05:42;94599.62;;;16.54;58.50
49915;BME280;35806;47.958;13.158;2023-09-19T06:08:09;94605.72;;;15.99;59.95
49915;BME280;35806;47.958;13.158;2023-09-19T06:10:36;94604.73;;;16.24;58.54
49915;BME280;35806;47.958;13.158;2023-09-19T06:13:04;94609.44;;;17.31;56.15
49915;BME280;35806;47.958;13.158;2023-09-19T06:15:31;94617.66;;;16.34;58.50
49915;BME280;35806;47.958;13.158;2023-09-19T06:17:59;94615.78;;;16.87;57.95
49915;BME280;35806;47.958;13.158;2023-09-19T06:20:26;94615.54;;;17.26;56.26
49915;BME280;35806;47.958;13.158;2023-09-19T06:22:54;94614.09;;;16.61;57.10
49915;BME280;35806;47.958;13.158;2023-09-19T06:25:21;94618.41;;;16.50;58.43
49915;BME280;35806;47.958;13.158;2023-09-19T06:27:50;94615.60;;;16.54;57.92
49915;BME280;35806;47.958;13.158;2023-09-19T06:30:17;94623.95;;;16.94;57.83
49915;BME280;35806;47.958;13.158;2023-09-19T06:32:45;94625.77;;;17.73;54.92
49915;BME280;35806;47.958;13.158;2023-09-19T06:35:15;94622.74;;;16.25;55.90
49915;BME280;35806;47.958;13.158;2023-09-19T06:37:43;94628.01;;;17.57;55.34
49915;BME280;35806;47.958;13.158;2023-09-19T06:40:11;94627.77;;;18.36;54.29
49915;BME280;35806;47.958;13.158;2023-09-19T06:42:40;94634.69;;;17.29;53.55
49915;BME280;35806;47.958;13.158;2023-09-19T06:45:08;94637.54;;;18.35;54.71
49915;BME280;35806;47.958;13.158;2023-09-19T06:47:36;94643.47;;;18.40;53.26
49915;BME280;35806;47.958;13.158;2023-09-19T06:50:04;94644.44;;;18.37;53.52
49915;BME280;35806;47.958;13.158;2023-09-19T06:52:32;94644.45;;;18.39;53.52
49915;BME280;35806;47.958;13.158;2023-09-19T06:55:00;94651.75;;;19.04;53.30
49915;BME280;35806;47.958;13.158;2023-09-19T06:57:28;94650.63;;;17.58;53.61
49915;BME280;35806;47.958;13.158;2023-09-19T06:59:55;94658.44;;;18.03;54.73
49915;BME280;35806;47.958;13.158;2023-09-19T07:02:23;94658.21;;;18.38;53.14
49915;BME280;35806;47.958;13.158;2023-09-19T07:04:50;94657.88;;;18.33;52.11
49915;BME280;35806;47.958;13.158;2023-09-19T07:07:18;94663.67;;;18.37;53.09
49915;BME280;35806;47.958;13.158;2023-09-19T07:09:45;94668.34;;;17.69;53.90
49915;BME280;35806;47.958;13.158;2023-09-19T07:12:12;94669.25;;;18.46;53.40
49915;BME280;35806;47.958;13.158;2023-09-19T07:14:40;94677.86;;;18.10;53.19
49915;BME280;35806;47.958;13.158;2023-09-19T07:17:07;94671.23;;;18.47;51.45
49915;BME280;35806;47.958;13.158;2023-09-19T07:19:36;94677.08;;;17.76;54.92
49915;BME280;35806;47.958;13.158;2023-09-19T07:22:03;94678.60;;;17.71;54.84
49915;BME280;35806;47.958;13.158;2023-09-19T07:24:36;94682.14;;;17.32;55.05
49915;BME280;35806;47.958;13.158;2023-09-19T07:27:03;94678.44;;;17.41;55.31
49915;BME280;35806;47.958;13.158;2023-09-19T07:29:36;94683.30;;;18.13;53.95
49915;BME280;35806;47.958;13.158;2023-09-19T07:32:04;94686.56;;;18.27;53.62
49915;BME280;35806;47.958;13.158;2023-09-19T07:34:32;94686.75;;;14.82;58.06
49915;BME280;35806;47.958;13.158;2023-09-19T07:36:59;94686.98;;;17.64;55.77
49915;BME280;35806;47.958;13.158;2023-09-19T07:39:27;94687.90;;;18.36;51.93
49915;BME280;35806;47.958;13.158;2023-09-19T07:41:54;94684.49;;;17.71;55.67
49915;BME280;35806;47.958;13.158;2023-09-19T07:44:22;94691.46;;;16.33;56.41
49915;BME280;35806;47.958;13.158;2023-09-19T07:46:49;94692.22;;;17.90;54.74
49915;BME280;35806;47.958;13.158;2023-09-19T07:49:22;94695.99;;;18.66;53.01
49915;BME280;35806;47.958;13.158;2023-09-19T07:51:50;94696.24;;;18.45;52.38
49915;BME280;35806;47.958;13.158;2023-09-19T07:54:17;94697.01;;;18.02;52.65
49915;BME280;35806;47.958;13.158;2023-09-19T07:56:44;94703.58;;;17.41;54.48
49915;BME280;35806;47.958;13.158;2023-09-19T07:59:12;94704.91;;;16.90;55.80
49915;BME280;35806;47.958;13.158;2023-09-19T08:01:40;94702.09;;;17.90;54.87
49915;BME280;35806;47.958;13.158;2023-09-19T08:04:07;94705.35;;;18.72;53.55
49915;BME280;35806;47.958;13.158;2023-09-19T08:06:35;94705.57;;;18.85;52.29
49915;BME280;35806;47.958;13.158;2023-09-19T08:09:03;94703.60;;;19.14;49.67
49915;BME280;35806;47.958;13.158;2023-09-19T08:11:36;94708.62;;;18.93;50.94
49915;BME280;35806;47.958;13.158;2023-09-19T08:14:03;94711.12;;;18.47;51.45
49915;BME280;35806;47.958;13.158;2023-09-19T08:16:31;94712.36;;;18.99;53.52
49915;BME280;35806;47.958;13.158;2023-09-19T08:18:58;94717.78;;;15.79;57.19
49915;BME280;35806;47.958;13.158;2023-09-19T08:21:25;94711.52;;;17.97;54.39
49915;BME280;35806;47.958;13.158;2023-09-19T08:23:53;94718.97;;;18.78;53.13
49915;BME280;35806;47.958;13.158;2023-09-19T08:26:20;94720.70;;;19.22;51.75
49915;BME280;35806;47.958;13.158;2023-09-19T08:28:48;94724.75;;;17.89;50.97
49915;BME280;35806;47.958;13.158;2023-09-19T08:31:16;94722.41;;;19.04;50.49
49915;BME280;35806;47.958;13.158;2023-09-19T08:33:43;94726.17;;;19.22;51.76
49915;BME280;35806;47.958;13.158;2023-09-19T08:36:11;94728.47;;;19.21;49.96
49915;BME280;35806;47.958;13.158;2023-09-19T08:38:38;94731.86;;;18.27;50.60
49915;BME280;35806;47.958;13.158;2023-09-19T08:41:07;94728.92;;;18.92;52.19
49915;BME280;35806;47.958;13.158;2023-09-19T08:43:36;94731.82;;;15.64;56.40
49915;BME280;35806;47.958;13.158;2023-09-19T08:46:09;94734.56;;;18.59;50.45
49915;BME280;35806;47.958;13.158;2023-09-19T08:48:46;94742.18;;;15.82;55.48
49915;BME280;35806;47.958;13.158;2023-09-19T08:51:18;94737.34;;;16.70;55.87
49915;BME280;35806;47.958;13.158;2023-09-19T08:53:54;94739.67;;;17.16;54.26
49915;BME280;35806;47.958;13.158;2023-09-19T08:56:26;94742.00;;;16.97;55.49
49915;BME280;35806;47.958;13.158;2023-09-19T08:58:59;94742.97;;;16.48;57.26
49915;BME280;35806;47.958;13.158;2023-09-19T09:01:28;94741.28;;;17.61;54.03
49915;BME280;35806;47.958;13.158;2023-09-19T09:03:56;94742.17;;;16.39;56.29
49915;BME280;35806;47.958;13.158;2023-09-19T09:06:25;94749.53;;;16.22;56.24
49915;BME280;35806;47.958;13.158;2023-09-19T09:08:53;94750.72;;;15.00;60.41
49915;BME280;35806;47.958;13.158;2023-09-19T09:11:21;94745.98;;;15.96;58.52
49915;BME280;35806;47.958;13.158;2023-09-19T09:13:48;94744.48;;;16.56;56.29
49915;BME280;35806;47.958;13.158;2023-09-19T09:16:16;94744.12;;;15.71;59.73
49915;BME280;35806;47.958;13.158;2023-09-19T09:18:44;94740.73;;;16.74;58.28
49915;BME280;35806;47.958;13.158;2023-09-19T09:21:11;94748.40;;;17.44;57.76
49915;BME280;35806;47.958;13.158;2023-09-19T09:23:39;94745.38;;;16.74;56.02
49915;BME280;35806;47.958;13.158;2023-09-19T09:26:06;94738.00;;;18.44;53.49
49915;BME280;35806;47.958;13.158;2023-09-19T09:28:35;94740.34;;;16.33;57.00
49915;BME280;35806;47.958;13.158;2023-09-19T09:31:02;94733.57;;;17.52;55.58
49915;BME280;35806;47.958;13.158;2023-09-19T09:33:30;94731.82;;;17.55;57.17
49915;BME280;35806;47.958;13.158;2023-09-19T09:35:58;94732.38;;;16.47;58.57
49915;BME280;35806;47.958;13.158;2023-09-19T09:38:28;94731.13;;;17.67;57.28
49915;BME280;35806;47.958;13.158;2023-09-19T09:40:56;94730.20;;;16.49;55.42
49915;BME280;35806;47.958;13.158;2023-09-19T09:43:28;94727.05;;;17.62;56.72
49915;BME280;35806;47.958;13.158;2023-09-19T09:46:14;94734.03;;;16.97;54.63
49915;BME280;35806;47.958;13.158;2023-09-19T09:48:42;94728.42;;;18.21;51.99
49915;BME280;35806;47.958;13.158;2023-09-19T09:51:10;94730.98;;;17.78;52.72
49915;BME280;35806;47.958;13.158;2023-09-19T09:53:38;94729.34;;;17.14;54.92
49915;BME280;35806;47.958;13.158;2023-09-19T09:56:16;94725.19;;;19.25;51.91
49915;BME280;35806;47.958;13.158;2023-09-19T09:58:51;94724.52;;;17.68;52.67
49915;BME280;35806;47.958;13.158;2023-09-19T10:01:18;94726.18;;;17.54;52.36
49915;BME280;35806;47.958;13.158;2023-09-19T10:03:45;94721.38;;;19.56;50.53
49915;BME280;35806;47.958;13.158;2023-09-19T10:06:14;94720.76;;;20.86;50.93
49915;BME280;35806;47.958;13.158;2023-09-19T10:08:57;94723.81;;;18.71;53.03
49915;BME280;35806;47.958;13.158;2023-09-19T10:11:26;94723.72;;;18.77;50.43
49915;BME280;35806;47.958;13.158;2023-09-19T10:13:52;94726.29;;;18.28;52.19
49915;BME280;35806;47.958;13.158;2023-09-19T10:16:20;94723.53;;;18.65;52.92
49915;BME280;35806;47.958;13.158;2023-09-19T10:18:49;94729.77;;;20.37;49.31
49915;BME280;35806;47.958;13.158;2023-09-19T10:21:19;94732.01;;;20.45;50.94
49915;BME280;35806;47.958;13.158;2023-09-19T10:23:46;94729.69;;;20.30;50.92
49915;BME280;35806;47.958;13.158;2023-09-19T10:26:17;94729.87;;;21.64;46.26
49915;BME280;35806;47.958;13.158;2023-09-19T10:28:47;94732.87;;;20.93;47.19
49915;BME280;35806;47.958;13.158;2023-09-19T10:31:19;94728.05;;;21.07;48.74
49915;BME280;35806;47.958;13.158;2023-09-19T10:33:47;94726.61;;;21.36;47.34
49915;BME280;35806;47.958;13.158;2023-09-19T10:36:16;94729.30;;;22.62;45.39
49915;BME280;35806;47.958;13.158;2023-09-19T10:38:45;94729.36;;;22.26;43.73
49915;BME280;35806;47.958;13.158;2023-09-19T10:41:14;94726.01;;;22.73;46.86
49915;BME280;35806;47.958;13.158;2023-09-19T10:43:43;94731.84;;;20.66;46.02
49915;BME280;35806;47.958;13.158;2023-09-19T10:46:12;94725.60;;;21.87;44.31
49915;BME280;35806;47.958;13.158;2023-09-19T10:48:40;94735.17;;;18.64;49.40
49915;BME280;35806;47.958;13.158;2023-09-19T10:51:10;94729.81;;;19.69;51.89
49915;BME280;35806;47.958;13.158;2023-09-19T10:53:46;94730.20;;;17.56;53.31
49915;BME280;35806;47.958;13.158;2023-09-19T10:56:19;94733.46;;;19.37;48.98
49915;BME280;35806;47.958;13.158;2023-09-19T10:58:48;94730.22;;;20.75;47.62
49915;BME280;35806;47.958;13.158;2023-09-19T11:01:16;94725.51;;;19.25;51.37
49915;BME280;35806;47.958;13.158;2023-09-19T11:03:44;94725.52;;;21.04;48.06
49915;BME280;35806;47.958;13.158;2023-09-19T11:06:13;94725.84;;;19.36;51.03
49915;BME280;35806;47.958;13.158;2023-09-19T11:09:13;94726.72;;;19.23;50.94
49915;BME280;35806;47.958;13.158;2023-09-19T11:11:42;94727.30;;;19.65;48.91
49915;BME280;35806;47.958;13.158;2023-09-19T11:14:54;94724.10;;;21.18;48.31
49915;BME280;35806;47.958;13.158;2023-09-19T11:17:33;94729.14;;;21.80;44.29
49915;BME280;35806;47.958;13.158;2023-09-19T11:20:23;94726.09;;;21.84;46.78
49915;BME280;35806;47.958;13.158;2023-09-19T11:23:18;94730.58;;;20.70;46.74
49915;BME280;35806;47.958;13.158;2023-09-19T11:25:45;94732.14;;;18.54;50.60
49915;BME280;35806;47.958;13.158;2023-09-19T11:28:29;94730.99;;;18.66;50.47
49915;BME280;35806;47.958;13.158;2023-09-19T11:30:57;94735.78;;;18.31;52.36
49915;BME280;35806;47.958;13.158;2023-09-19T11:33:26;94740.60;;;17.80;54.45
49915;BME280;35806;47.958;13.158;2023-09-19T11:36:02;94735.90;;;17.86;54.84
49915;BME280;35806;47.958;13.158;2023-09-19T11:39:02;94741.37;;;20.03;51.60
49915;BME280;35806;47.958;13.158;2023-09-19T11:41:38;94736.10;;;18.25;53.58
49915;BME280;35806;47.958;13.158;2023-09-19T11:44:37;94743.80;;;18.27;53.77
49915;BME280;35806;47.958;13.158;2023-09-19T11:47:05;94743.96;;;18.80;53.56
49915;BME280;35806;47.958;13.158;2023-09-19T11:49:40;94744.45;;;19.25;52.84
49915;BME280;35806;47.958;13.158;2023-09-19T11:52:08;94735.53;;;18.52;52.44
49915;BME280;35806;47.958;13.158;2023-09-19T11:54:42;94742.99;;;16.77;54.82
49915;BME280;35806;47.958;13.158;2023-09-19T11:57:09;94738.36;;;17.42;56.12
49915;BME280;35806;47.958;13.158;2023-09-19T11:59:38;94730.31;;;17.50;55.95
49915;BME280;35806;47.958;13.158;2023-09-19T12:02:07;94724.02;;;18.99;54.58
49915;BME280;35806;47.958;13.158;2023-09-19T12:04:35;94723.72;;;19.02;54.33
49915;BME280;35806;47.958;13.158;2023-09-19T12:07:03;94733.21;;;16.79;57.20
49915;BME280;35806;47.958;13.158;2023-09-19T12:09:32;94731.14;;;16.61;58.77
49915;BME280;35806;47.958;13.158;2023-09-19T12:12:00;94730.80;;;16.33;60.80
49915;BME280;35806;47.958;13.158;2023-09-19T12:14:27;94727.83;;;16.85;58.00
49915;BME280;35806;47.958;13.158;2023-09-19T12:16:57;94723.88;;;16.60;59.10
49915;BME280;35806;47.958;13.158;2023-09-19T12:19:25;94725.07;;;17.01;57.71
49915;BME280;35806;47.958;13.158;2023-09-19T12:22:01;94715.71;;;18.25;56.84
49915;BME280;35806;47.958;13.158;2023-09-19T12:24:28;94716.18;;;19.15;54.01
49915;BME280;35806;47.958;13.158;2023-09-19T12:27:01;94718.78;;;19.72;51.07
49915;BME280;35806;47.958;13.158;2023-09-19T12:29:28;94713.67;;;20.38;51.09
49915;BME280;35806;47.958;13.158;2023-09-19T12:31:56;94709.43;;;20.66;52.21
49915;BME280;35806;47.958;13.158;2023-09-19T12:34:25;94708.96;;;21.09;47.75
49915;BME280;35806;47.958;13.158;2023-09-19T12:37:10;94708.01;;;21.68;49.15
49915;BME280;35806;47.958;13.158;2023-09-19T12:39:39;94708.51;;;21.20;48.57
49915;BME280;35806;47.958;13.158;2023-09-19T12:42:08;94710.50;;;21.33;45.16
49915;BME280;35806;47.958;13.158;2023-09-19T12:44:37;94705.93;;;22.35;45.67
49915;BME280;35806;47.958;13.158;2023-09-19T12:47:11;94705.57;;;23.15;43.37
49915;BME280;35806;47.958;13.158;2023-09-19T12:50:06;94706.16;;;22.77;42.48
49915;BME280;35806;47.958;13.158;2023-09-19T12:52:39;94703.46;;;22.59;43.90
49915;BME280;35806;47.958;13.158;2023-09-19T12:55:07;94698.53;;;22.71;43.25
49915;BME280;35806;47.958;13.158;2023-09-19T12:57:40;94697.58;;;23.45;42.67
49915;BME280;35806;47.958;13.158;2023-09-19T13:00:08;94697.90;;;22.66;44.75
49915;BME280;35806;47.958;13.158;2023-09-19T13:02:35;94702.50;;;23.74;41.73
49915;BME280;35806;47.958;13.158;2023-09-19T13:05:03;94694.78;;;23.04;44.44
49915;BME280;35806;47.958;13.158;2023-09-19T13:07:46;94697.00;;;23.12;43.97
49915;BME280;35806;47.958;13.158;2023-09-19T13:10:13;94694.77;;;19.96;44.53
49915;BME280;35806;47.958;13.158;2023-09-19T13:12:42;94686.08;;;21.02;45.10
49915;BME280;35806;47.958;13.158;2023-09-19T13:15:11;94685.82;;;20.75;45.73
49915;BME280;35806;47.958;13.158;2023-09-19T13:17:43;94687.15;;;20.86;45.06